Time,TemperatureF,DewpointF,PressureIn,WindDirection,WindDirectionDegrees,WindSpeedMPH,WindSpeedGustMPH,Humidity,HourlyPrecipIn,Conditions,Clouds,dailyrainin,SoftwareType,DateUTC
2013-03-19 00:00:00,14.7,11.5,29.46,West,279,2.0,5.0,87,0.00,,SKC,0.00,VWS V14.01,2013-03-19 05:00:00,
2013-03-19 00:02:00,15.7,13.0,29.47,West,264,1.0,8.0,89,0.00,,SKC,0.00,VWS V14.01,2013-03-19 05:02:00,
2013-03-19 00:05:00,14.5,11.6,29.46,West,270,1.0,5.0,88,0.00,,SKC,0.00,VWS V14.01,2013-03-19 05:05:00,
2013-03-19 00:07:00,15.6,12.9,29.47,West,260,2.0,2.0,89,0.00,,SKC,0.00,VWS V14.01,2013-03-19 05:07:00,
2013-03-19 00:10:00,14.4,11.5,29.46,West,277,2.0,6.0,88,0.00,,SKC,0.00,VWS V14.01,2013-03-19 05:10:00,
2013-03-19 00:12:00,15.5,12.6,29.47,WSW,255,2.0,2.0,88,0.00,,SKC,0.00,VWS V14.01,2013-03-19 05:12:00,
2013-03-19 00:15:00,14.4,11.8,29.46,WSW,254,2.0,7.0,89,0.00,,SKC,0.00,VWS V14.01,2013-03-19 05:15:00,
2013-03-19 00:17:00,15.5,12.6,29.47,West,280,3.0,3.0,88,0.00,,SKC,0.00,VWS V14.01,2013-03-19 05:17:00,
2013-03-19 00:20:00,14.3,11.7,29.46,West,261,4.0,6.0,89,0.00,,SKC,0.00,VWS V14.01,2013-03-19 05:20:00,
2013-03-19 00:22:00,15.4,12.5,29.47,West,265,3.0,3.0,88,0.00,,SKC,0.00,VWS V14.01,2013-03-19 05:22:00,
2013-03-19 00:25:00,14.3,11.7,29.46,WSW,245,3.0,5.0,89,0.00,,SKC,0.00,VWS V14.01,2013-03-19 05:25:00,
2013-03-19 00:27:00,15.3,12.4,29.47,West,280,3.0,4.0,88,0.00,,SKC,0.00,VWS V14.01,2013-03-19 05:27:00,
2013-03-19 00:30:00,14.3,11.7,29.46,West,280,2.0,6.0,89,0.00,,SKC,0.00,VWS V14.01,2013-03-19 05:30:00,
2013-03-19 00:32:00,15.2,12.3,29.46,West,275,3.0,4.0,88,0.00,,SKC,0.00,VWS V14.01,2013-03-19 05:32:00,
2013-03-19 00:35:00,14.2,11.6,29.46,WSW,241,6.0,6.0,89,0.00,,SKC,0.00,VWS V14.01,2013-03-19 05:35:00,
2013-03-19 00:37:00,15.2,12.3,29.46,SW,232,2.0,2.0,88,0.00,,SKC,0.00,VWS V14.01,2013-03-19 05:37:00,
2013-03-19 00:40:00,14.2,11.6,29.46,West,263,1.0,6.0,89,0.00,,SKC,0.00,VWS V14.01,2013-03-19 05:40:00,
2013-03-19 00:42:00,15.1,12.2,29.46,WSW,250,3.0,4.0,88,0.00,,SKC,0.00,VWS V14.01,2013-03-19 05:42:00,
2013-03-19 00:45:00,14.3,11.7,29.46,West,273,2.0,5.0,89,0.00,,SKC,0.00,VWS V14.01,2013-03-19 05:45:00,
2013-03-19 00:47:00,15.0,11.8,29.46,WSW,257,2.0,2.0,87,0.00,,SKC,0.00,VWS V14.01,2013-03-19 05:47:00,
2013-03-19 00:50:00,14.3,11.7,29.46,West,269,3.0,7.0,89,0.00,,SKC,0.00,VWS V14.01,2013-03-19 05:50:00,
2013-03-19 00:52:00,14.9,12.0,29.46,WSW,246,4.0,4.0,88,0.00,,SKC,0.00,VWS V14.01,2013-03-19 05:52:00,
2013-03-19 00:55:00,14.3,11.7,29.46,NW,314,2.0,5.0,89,0.00,,SKC,0.00,VWS V14.01,2013-03-19 05:55:00,
2013-03-19 00:57:00,14.8,11.6,29.46,WSW,255,3.0,3.0,87,0.00,,SKC,0.00,VWS V14.01,2013-03-19 05:57:00,
2013-03-19 01:00:00,14.3,11.7,29.46,West,272,3.0,8.0,89,0.00,,SKC,0.00,VWS V14.01,2013-03-19 06:00:00,
2013-03-19 01:02:00,14.7,11.5,29.46,West,279,2.0,5.0,87,0.00,,SKC,0.00,VWS V14.01,2013-03-19 06:02:00,
2013-03-19 01:05:00,14.4,12.0,29.46,WSW,254,2.0,4.0,90,0.00,,SKC,0.00,VWS V14.01,2013-03-19 06:05:00,
2013-03-19 01:07:00,14.5,11.6,29.46,WSW,241,2.0,2.0,88,0.00,,SKC,0.00,VWS V14.01,2013-03-19 06:07:00,
2013-03-19 01:10:00,14.4,12.0,29.46,WNW,289,3.0,6.0,90,0.00,,SKC,0.00,VWS V14.01,2013-03-19 06:10:00,
2013-03-19 01:12:00,14.4,11.5,29.46,West,261,1.0,2.0,88,0.00,,SKC,0.00,VWS V14.01,2013-03-19 06:12:00,
2013-03-19 01:15:00,14.4,12.0,29.46,West,267,3.0,5.0,90,0.00,,SKC,0.00,VWS V14.01,2013-03-19 06:15:00,
2013-03-19 01:17:00,14.4,11.8,29.46,West,264,3.0,3.0,89,0.00,,SKC,0.00,VWS V14.01,2013-03-19 06:17:00,
2013-03-19 01:20:00,14.4,12.0,29.46,West,265,2.0,7.0,90,0.00,,SKC,0.00,VWS V14.01,2013-03-19 06:20:00,
2013-03-19 01:22:00,14.3,11.7,29.46,West,265,3.0,4.0,89,0.00,,SKC,0.00,VWS V14.01,2013-03-19 06:22:00,
2013-03-19 01:25:00,14.4,12.0,29.46,WSW,254,5.0,5.0,90,0.00,,SKC,0.00,VWS V14.01,2013-03-19 06:25:00,
2013-03-19 01:27:00,14.3,11.7,29.46,West,279,3.0,3.0,89,0.00,,SKC,0.00,VWS V14.01,2013-03-19 06:27:00,
2013-03-19 01:30:00,14.4,12.0,29.46,West,272,1.0,6.0,90,0.00,,SKC,0.00,VWS V14.01,2013-03-19 06:30:00,
2013-03-19 01:32:00,14.3,11.7,29.46,SW,236,4.0,4.0,89,0.00,,SKC,0.00,VWS V14.01,2013-03-19 06:32:00,
2013-03-19 01:35:00,14.5,12.1,29.46,West,271,3.0,6.0,90,0.00,,SKC,0.00,VWS V14.01,2013-03-19 06:35:00,
2013-03-19 01:37:00,14.2,11.6,29.46,West,272,3.0,6.0,89,0.00,,SKC,0.00,VWS V14.01,2013-03-19 06:37:00,
2013-03-19 01:40:00,14.5,12.1,29.46,West,281,2.0,6.0,90,0.00,,SKC,0.00,VWS V14.01,2013-03-19 06:40:00,
2013-03-19 01:42:00,14.2,11.6,29.46,West,261,2.0,2.0,89,0.00,,SKC,0.00,VWS V14.01,2013-03-19 06:42:00,
2013-03-19 01:45:00,14.5,12.1,29.46,SW,232,5.0,7.0,90,0.00,,SKC,0.00,VWS V14.01,2013-03-19 06:45:00,
2013-03-19 01:47:00,14.3,11.7,29.46,West,267,2.0,2.0,89,0.00,,SKC,0.00,VWS V14.01,2013-03-19 06:47:00,
2013-03-19 01:50:00,14.5,12.1,29.46,WNW,283,0.0,5.0,90,0.00,,SKC,0.00,VWS V14.01,2013-03-19 06:50:00,
2013-03-19 01:52:00,14.3,11.7,29.46,West,268,2.0,3.0,89,0.00,,SKC,0.00,VWS V14.01,2013-03-19 06:52:00,
2013-03-19 01:55:00,14.6,12.2,29.46,West,276,2.0,6.0,90,0.00,,SKC,0.00,VWS V14.01,2013-03-19 06:55:00,
2013-03-19 01:57:00,14.3,11.7,29.46,WNW,283,4.0,4.0,89,0.00,,SKC,0.00,VWS V14.01,2013-03-19 06:57:00,
2013-03-19 02:00:00,14.7,12.3,29.46,West,261,2.0,5.0,90,0.00,,SKC,0.00,VWS V14.01,2013-03-19 07:00:00,
2013-03-19 02:02:00,14.4,11.8,29.46,West,261,2.0,4.0,89,0.00,,SKC,0.00,VWS V14.01,2013-03-19 07:02:00,
2013-03-19 02:05:00,14.8,12.4,29.46,West,262,3.0,6.0,90,0.00,,SKC,0.00,VWS V14.01,2013-03-19 07:05:00,
2013-03-19 02:07:00,14.4,12.0,29.46,West,261,2.0,2.0,90,0.00,,SKC,0.00,VWS V14.01,2013-03-19 07:07:00,
2013-03-19 02:10:00,14.8,12.4,29.46,WNW,286,4.0,6.0,90,0.00,,SKC,0.00,VWS V14.01,2013-03-19 07:10:00,
2013-03-19 02:12:00,14.4,12.0,29.46,WSW,257,2.0,3.0,90,0.00,,SKC,0.00,VWS V14.01,2013-03-19 07:12:00,
2013-03-19 02:15:00,14.9,12.5,29.46,WNW,291,6.0,8.0,90,0.00,,SKC,0.00,VWS V14.01,2013-03-19 07:15:00,
2013-03-19 02:17:00,14.4,12.0,29.46,West,271,2.0,3.0,90,0.00,,SKC,0.00,VWS V14.01,2013-03-19 07:17:00,
2013-03-19 02:20:00,14.9,12.2,29.46,WNW,287,6.0,9.0,89,0.00,,SKC,0.00,VWS V14.01,2013-03-19 07:20:00,
2013-03-19 02:22:00,14.4,12.0,29.46,West,273,3.0,3.0,90,0.00,,SKC,0.00,VWS V14.01,2013-03-19 07:22:00,
2013-03-19 02:25:00,14.9,12.2,29.46,West,279,7.0,8.0,89,0.00,,SKC,0.00,VWS V14.01,2013-03-19 07:25:00,
2013-03-19 02:27:00,14.4,12.0,29.46,WNW,302,3.0,6.0,90,0.00,,SKC,0.00,VWS V14.01,2013-03-19 07:27:00,
2013-03-19 02:30:00,14.9,12.2,29.46,WNW,282,3.0,7.0,89,0.00,,SKC,0.00,VWS V14.01,2013-03-19 07:30:00,
2013-03-19 02:32:00,14.4,12.0,29.46,WNW,282,3.0,6.0,90,0.00,,SKC,0.00,VWS V14.01,2013-03-19 07:32:00,
2013-03-19 02:35:00,14.8,12.1,29.46,WNW,288,6.0,11.0,89,0.00,,SKC,0.00,VWS V14.01,2013-03-19 07:35:00,
2013-03-19 02:38:00,14.4,12.0,29.46,West,259,1.0,3.0,90,0.00,,SKC,0.00,VWS V14.01,2013-03-19 07:38:00,
2013-03-19 02:40:00,14.8,12.1,29.46,West,274,1.0,9.0,89,0.00,,SKC,0.00,VWS V14.01,2013-03-19 07:40:00,
2013-03-19 02:43:00,14.5,12.1,29.46,West,272,4.0,5.0,90,0.00,,SKC,0.00,VWS V14.01,2013-03-19 07:43:00,
2013-03-19 02:45:00,14.8,12.1,29.46,WSW,257,2.0,12.0,89,0.00,,SKC,0.00,VWS V14.01,2013-03-19 07:45:00,
2013-03-19 02:48:00,14.5,12.1,29.46,WNW,285,2.0,5.0,90,0.00,,SKC,0.00,VWS V14.01,2013-03-19 07:48:00,
2013-03-19 02:50:00,14.7,12.1,29.46,West,263,3.0,8.0,89,0.00,,SKC,0.00,VWS V14.01,2013-03-19 07:50:00,
2013-03-19 02:53:00,14.6,12.2,29.46,WSW,251,2.0,2.0,90,0.00,,SKC,0.00,VWS V14.01,2013-03-19 07:53:00,
2013-03-19 02:55:00,14.6,11.9,29.46,West,259,5.0,10.0,89,0.00,,SKC,0.00,VWS V14.01,2013-03-19 07:55:00,
2013-03-19 02:58:00,14.6,12.2,29.46,WNW,288,2.0,3.0,90,0.00,,SKC,0.00,VWS V14.01,2013-03-19 07:58:00,
2013-03-19 03:00:00,14.5,11.9,29.46,West,263,4.0,11.0,89,0.00,,SKC,0.00,VWS V14.01,2013-03-19 08:00:00,
2013-03-19 03:03:00,14.7,12.3,29.46,WNW,292,3.0,3.0,90,0.00,,SKC,0.00,VWS V14.01,2013-03-19 08:03:00,
2013-03-19 03:05:00,14.4,11.5,29.46,WNW,284,6.0,13.0,88,0.00,,SKC,0.00,VWS V14.01,2013-03-19 08:05:00,
2013-03-19 03:08:00,14.7,12.3,29.46,West,262,1.0,3.0,90,0.00,,SKC,0.00,VWS V14.01,2013-03-19 08:08:00,
2013-03-19 03:10:00,14.3,11.4,29.46,West,265,4.0,11.0,88,0.00,,SKC,0.00,VWS V14.01,2013-03-19 08:10:00,
2013-03-19 03:13:00,14.8,12.4,29.46,West,271,4.0,5.0,90,0.00,,SKC,0.00,VWS V14.01,2013-03-19 08:13:00,
2013-03-19 03:15:00,14.1,11.2,29.47,WNW,282,9.0,11.0,88,0.00,,SKC,0.00,VWS V14.01,2013-03-19 08:15:00,
2013-03-19 03:18:00,14.9,12.5,29.46,West,269,6.0,8.0,90,0.00,,SKC,0.00,VWS V14.01,2013-03-19 08:18:00,
2013-03-19 03:20:00,14.0,10.9,29.47,WSW,246,4.0,16.0,87,0.00,,SKC,0.00,VWS V14.01,2013-03-19 08:20:00,
2013-03-19 03:23:00,14.9,12.2,29.46,West,280,6.0,6.0,89,0.00,,SKC,0.00,VWS V14.01,2013-03-19 08:23:00,
2013-03-19 03:25:00,13.8,10.6,29.47,West,273,3.0,8.0,87,0.00,,SKC,0.00,VWS V14.01,2013-03-19 08:25:00,
2013-03-19 03:28:00,14.9,12.2,29.46,West,267,6.0,7.0,89,0.00,,SKC,0.00,VWS V14.01,2013-03-19 08:28:00,
2013-03-19 03:30:00,13.7,10.8,29.48,West,276,4.0,8.0,88,0.00,,SKC,0.00,VWS V14.01,2013-03-19 08:30:00,
2013-03-19 03:33:00,14.9,12.2,29.46,WNW,283,11.0,11.0,89,0.00,,SKC,0.00,VWS V14.01,2013-03-19 08:33:00,
2013-03-19 03:35:00,13.4,10.3,29.48,WSW,254,5.0,12.0,87,0.00,,SKC,0.00,VWS V14.01,2013-03-19 08:35:00,
2013-03-19 03:38:00,14.8,12.1,29.46,WNW,286,5.0,9.0,89,0.00,,SKC,0.00,VWS V14.01,2013-03-19 08:38:00,
2013-03-19 03:40:00,13.3,10.2,29.48,WNW,287,5.0,12.0,87,0.00,,SKC,0.00,VWS V14.01,2013-03-19 08:40:00,
2013-03-19 03:43:00,14.8,12.1,29.46,West,259,3.0,5.0,89,0.00,,SKC,0.00,VWS V14.01,2013-03-19 08:43:00,
2013-03-19 03:45:00,13.1,9.7,29.48,WSW,249,2.0,13.0,86,0.00,,SKC,0.00,VWS V14.01,2013-03-19 08:45:00,
2013-03-19 03:48:00,14.8,12.1,29.46,WSW,243,2.0,3.0,89,0.00,,SKC,0.00,VWS V14.01,2013-03-19 08:48:00,
2013-03-19 03:50:00,12.9,9.8,29.48,West,280,3.0,8.0,87,0.00,,SKC,0.00,VWS V14.01,2013-03-19 08:50:00,
2013-03-19 03:53:00,14.7,12.1,29.46,WSW,250,4.0,5.0,89,0.00,,SKC,0.00,VWS V14.01,2013-03-19 08:53:00,
2013-03-19 03:55:00,12.8,9.7,29.48,WNW,302,11.0,11.0,87,0.00,,SKC,0.00,VWS V14.01,2013-03-19 08:55:00,
2013-03-19 03:58:00,14.6,11.9,29.46,West,267,4.0,8.0,89,0.00,,SKC,0.00,VWS V14.01,2013-03-19 08:58:00,
2013-03-19 04:00:00,12.8,9.4,29.48,West,281,3.0,14.0,86,0.00,,SKC,0.00,VWS V14.01,2013-03-19 09:00:00,
2013-03-19 04:03:00,14.5,11.9,29.46,SW,233,5.0,7.0,89,0.00,,SKC,0.00,VWS V14.01,2013-03-19 09:03:00,
2013-03-19 04:05:00,12.6,9.5,29.48,WNW,283,3.0,10.0,87,0.00,,SKC,0.00,VWS V14.01,2013-03-19 09:05:00,
2013-03-19 04:08:00,14.4,11.5,29.46,West,275,7.0,11.0,88,0.00,,SKC,0.00,VWS V14.01,2013-03-19 09:08:00,
2013-03-19 04:10:00,12.6,9.5,29.48,West,265,4.0,14.0,87,0.00,,SKC,0.00,VWS V14.01,2013-03-19 09:10:00,
2013-03-19 04:13:00,14.2,11.3,29.46,West,280,3.0,9.0,88,0.00,,SKC,0.00,VWS V14.01,2013-03-19 09:13:00,
2013-03-19 04:15:00,12.5,9.1,29.49,West,273,4.0,10.0,86,0.00,,SKC,0.00,VWS V14.01,2013-03-19 09:15:00,
2013-03-19 04:18:00,14.1,11.2,29.47,West,272,7.0,10.0,88,0.00,,SKC,0.00,VWS V14.01,2013-03-19 09:18:00,
2013-03-19 04:20:00,12.4,9.0,29.49,WNW,283,7.0,14.0,86,0.00,,SKC,0.00,VWS V14.01,2013-03-19 09:20:00,
2013-03-19 04:23:00,13.9,10.8,29.47,West,265,3.0,6.0,87,0.00,,SKC,0.00,VWS V14.01,2013-03-19 09:23:00,
2013-03-19 04:25:00,12.4,8.8,29.49,WNW,297,3.0,15.0,85,0.00,,SKC,0.00,VWS V14.01,2013-03-19 09:25:00,
2013-03-19 04:28:00,13.8,10.6,29.47,WNW,284,2.0,7.0,87,0.00,,SKC,0.00,VWS V14.01,2013-03-19 09:28:00,
2013-03-19 04:30:00,12.3,8.7,29.49,WNW,296,5.0,10.0,85,0.00,,SKC,0.00,VWS V14.01,2013-03-19 09:30:00,
2013-03-19 04:33:00,13.6,10.7,29.48,WNW,286,7.0,12.0,88,0.00,,SKC,0.00,VWS V14.01,2013-03-19 09:33:00,
2013-03-19 04:35:00,12.2,8.6,29.49,WNW,288,3.0,13.0,85,0.00,,SKC,0.00,VWS V14.01,2013-03-19 09:35:00,
2013-03-19 04:38:00,13.4,10.3,29.48,West,274,4.0,6.0,87,0.00,,SKC,0.00,VWS V14.01,2013-03-19 09:38:00,
2013-03-19 04:40:00,11.7,8.1,29.49,West,276,5.0,9.0,85,0.00,,SKC,0.00,VWS V14.01,2013-03-19 09:40:00,
2013-03-19 04:43:00,13.2,10.1,29.48,West,277,7.0,10.0,87,0.00,,SKC,0.00,VWS V14.01,2013-03-19 09:43:00,
2013-03-19 04:45:00,11.7,8.1,29.50,West,276,5.0,5.0,85,0.00,,SKC,0.00,VWS V14.01,2013-03-19 09:45:00,
2013-03-19 04:48:00,13.0,9.6,29.48,West,263,5.0,8.0,86,0.00,,SKC,0.00,VWS V14.01,2013-03-19 09:48:00,
2013-03-19 04:50:00,11.7,8.1,29.50,West,276,5.0,5.0,85,0.00,,SKC,0.00,VWS V14.01,2013-03-19 09:50:00,
2013-03-19 04:53:00,12.9,9.8,29.48,West,275,6.0,8.0,87,0.00,,SKC,0.00,VWS V14.01,2013-03-19 09:53:00,
2013-03-19 04:55:00,11.7,8.1,29.50,West,276,5.0,5.0,85,0.00,,SKC,0.00,VWS V14.01,2013-03-19 09:55:00,
2013-03-19 04:58:00,12.8,9.7,29.48,West,269,4.0,14.0,87,0.00,,SKC,0.00,VWS V14.01,2013-03-19 09:58:00,
2013-03-19 05:00:00,11.7,8.1,29.51,West,276,5.0,5.0,85,0.00,,SKC,0.00,VWS V14.01,2013-03-19 10:00:00,
2013-03-19 05:03:00,12.8,9.7,29.48,WSW,253,3.0,9.0,87,0.00,,SKC,0.00,VWS V14.01,2013-03-19 10:03:00,
2013-03-19 05:05:00,11.7,8.1,29.51,West,276,5.0,5.0,85,0.00,,SKC,0.00,VWS V14.01,2013-03-19 10:05:00,
2013-03-19 05:08:00,12.6,9.5,29.48,NW,309,5.0,11.0,87,0.00,,SKC,0.00,VWS V14.01,2013-03-19 10:08:00,
2013-03-19 05:10:00,11.7,8.1,29.51,West,276,5.0,5.0,85,0.00,,SKC,0.00,VWS V14.01,2013-03-19 10:10:00,
2013-03-19 05:13:00,12.5,9.4,29.48,West,267,5.0,10.0,87,0.00,,SKC,0.00,VWS V14.01,2013-03-19 10:13:00,
2013-03-19 05:15:00,11.7,8.1,29.52,West,276,5.0,5.0,85,0.00,,SKC,0.00,VWS V14.01,2013-03-19 10:15:00,
2013-03-19 05:18:00,12.5,9.1,29.49,West,265,3.0,7.0,86,0.00,,SKC,0.00,VWS V14.01,2013-03-19 10:18:00,
2013-03-19 05:20:00,11.7,8.1,29.52,West,276,5.0,5.0,85,0.00,,SKC,0.00,VWS V14.01,2013-03-19 10:20:00,
2013-03-19 05:23:00,12.4,9.0,29.49,WNW,288,10.0,10.0,86,0.00,,SKC,0.00,VWS V14.01,2013-03-19 10:23:00,
2013-03-19 05:25:00,11.7,8.1,29.52,West,276,5.0,5.0,85,0.00,,SKC,0.00,VWS V14.01,2013-03-19 10:25:00,
2013-03-19 05:28:00,12.4,8.8,29.49,WSW,254,4.0,6.0,85,0.00,,SKC,0.00,VWS V14.01,2013-03-19 10:28:00,
2013-03-19 05:30:00,11.7,8.1,29.52,West,276,5.0,5.0,85,0.00,,SKC,0.00,VWS V14.01,2013-03-19 10:30:00,
2013-03-19 05:34:00,12.3,8.9,29.49,West,267,5.0,8.0,86,0.00,,SKC,0.00,VWS V14.01,2013-03-19 10:34:00,
2013-03-19 05:35:00,11.7,8.1,29.52,West,276,5.0,5.0,85,0.00,,SKC,0.00,VWS V14.01,2013-03-19 10:35:00,
2013-03-19 05:38:00,11.7,8.1,29.49,NW,309,6.0,9.0,85,0.00,,SKC,0.00,VWS V14.01,2013-03-19 10:38:00,
2013-03-19 05:40:00,11.7,8.1,29.52,West,276,5.0,5.0,85,0.00,,SKC,0.00,VWS V14.01,2013-03-19 10:40:00,
2013-03-19 05:43:00,11.7,8.1,29.49,West,276,5.0,5.0,85,0.00,,SKC,0.00,VWS V14.01,2013-03-19 10:43:00,
2013-03-19 05:45:00,11.7,8.1,29.53,West,276,5.0,5.0,85,0.00,,SKC,0.00,VWS V14.01,2013-03-19 10:45:00,
2013-03-19 05:48:00,11.7,8.1,29.50,West,276,5.0,5.0,85,0.00,,SKC,0.00,VWS V14.01,2013-03-19 10:48:00,
2013-03-19 05:50:00,11.7,8.1,29.53,West,276,5.0,5.0,85,0.00,,SKC,0.00,VWS V14.01,2013-03-19 10:50:00,
2013-03-19 05:53:00,11.7,8.1,29.50,West,276,5.0,5.0,85,0.00,,SKC,0.00,VWS V14.01,2013-03-19 10:53:00,
2013-03-19 05:55:00,11.7,8.1,29.53,West,276,5.0,5.0,85,0.00,,SKC,0.00,VWS V14.01,2013-03-19 10:55:00,
2013-03-19 05:59:00,11.7,8.1,29.50,West,276,5.0,5.0,85,0.00,,SKC,0.00,VWS V14.01,2013-03-19 10:59:00,
2013-03-19 06:00:00,11.7,8.1,29.54,West,276,5.0,5.0,85,0.00,,SKC,0.00,VWS V14.01,2013-03-19 11:00:00,
2013-03-19 06:04:00,11.7,8.1,29.51,West,276,5.0,5.0,85,0.00,,SKC,0.00,VWS V14.01,2013-03-19 11:04:00,
2013-03-19 06:05:00,11.7,8.1,29.54,West,276,5.0,5.0,85,0.00,,SKC,0.00,VWS V14.01,2013-03-19 11:05:00,
2013-03-19 06:09:00,11.7,8.1,29.51,West,276,5.0,5.0,85,0.00,,SKC,0.00,VWS V14.01,2013-03-19 11:09:00,
2013-03-19 06:10:00,11.7,8.1,29.54,West,276,5.0,5.0,85,0.00,,SKC,0.00,VWS V14.01,2013-03-19 11:10:00,
2013-03-19 06:14:00,11.7,8.1,29.51,West,276,5.0,5.0,85,0.00,,SKC,0.00,VWS V14.01,2013-03-19 11:14:00,
2013-03-19 06:15:00,11.7,8.1,29.55,West,276,5.0,5.0,85,0.00,,SKC,0.00,VWS V14.01,2013-03-19 11:15:00,
2013-03-19 06:19:00,11.7,8.1,29.52,West,276,5.0,5.0,85,0.00,,SKC,0.00,VWS V14.01,2013-03-19 11:19:00,
2013-03-19 06:20:00,11.7,8.1,29.55,West,276,5.0,5.0,85,0.00,,SKC,0.00,VWS V14.01,2013-03-19 11:20:00,
2013-03-19 06:24:00,11.7,8.1,29.52,West,276,5.0,5.0,85,0.00,,SKC,0.00,VWS V14.01,2013-03-19 11:24:00,
2013-03-19 06:25:00,11.7,8.1,29.55,West,276,5.0,5.0,85,0.00,,SKC,0.00,VWS V14.01,2013-03-19 11:25:00,
2013-03-19 06:29:00,11.7,8.1,29.52,West,276,5.0,5.0,85,0.00,,SKC,0.00,VWS V14.01,2013-03-19 11:29:00,
2013-03-19 06:30:00,11.7,8.1,29.56,West,276,5.0,5.0,85,0.00,,SKC,0.00,VWS V14.01,2013-03-19 11:30:00,
2013-03-19 06:34:00,11.7,8.1,29.52,West,276,5.0,5.0,85,0.00,,SKC,0.00,VWS V14.01,2013-03-19 11:34:00,
2013-03-19 06:35:00,11.7,8.1,29.56,West,276,5.0,5.0,85,0.00,,SKC,0.00,VWS V14.01,2013-03-19 11:35:00,
2013-03-19 06:39:00,11.7,8.1,29.52,West,276,5.0,5.0,85,0.00,,SKC,0.00,VWS V14.01,2013-03-19 11:39:00,
2013-03-19 06:40:00,11.7,8.1,29.56,West,276,5.0,5.0,85,0.00,,SKC,0.00,VWS V14.01,2013-03-19 11:40:00,
2013-03-19 06:44:00,11.7,8.1,29.52,West,276,5.0,5.0,85,0.00,,SKC,0.00,VWS V14.01,2013-03-19 11:44:00,
2013-03-19 06:45:00,11.7,8.1,29.56,West,276,5.0,5.0,85,0.00,,SKC,0.00,VWS V14.01,2013-03-19 11:45:00,
2013-03-19 06:49:00,11.7,8.1,29.53,West,276,5.0,5.0,85,0.00,,SKC,0.00,VWS V14.01,2013-03-19 11:49:00,
2013-03-19 06:50:00,11.7,8.1,29.56,West,276,5.0,5.0,85,0.00,,SKC,0.00,VWS V14.01,2013-03-19 11:50:00,
2013-03-19 06:54:00,11.7,8.1,29.53,West,276,5.0,5.0,85,0.00,,SKC,0.00,VWS V14.01,2013-03-19 11:54:00,
2013-03-19 06:55:00,11.7,8.1,29.56,West,276,5.0,5.0,85,0.00,,SKC,0.00,VWS V14.01,2013-03-19 11:55:00,
2013-03-19 06:59:00,11.7,8.1,29.53,West,276,5.0,5.0,85,0.00,,SKC,0.00,VWS V14.01,2013-03-19 11:59:00,
2013-03-19 07:00:00,11.7,8.1,29.57,West,276,5.0,5.0,85,0.00,,SKC,0.00,VWS V14.01,2013-03-19 12:00:00,
2013-03-19 07:04:00,11.7,8.1,29.54,West,276,5.0,5.0,85,0.00,,SKC,0.00,VWS V14.01,2013-03-19 12:04:00,
2013-03-19 07:05:00,11.8,7.9,29.57,WNW,283,3.0,10.0,84,0.00,,SKC,0.00,VWS V14.01,2013-03-19 12:05:00,
2013-03-19 07:09:00,11.7,8.1,29.54,West,276,5.0,5.0,85,0.00,,SKC,0.00,VWS V14.01,2013-03-19 12:09:00,
2013-03-19 07:10:00,11.8,7.9,29.57,WNW,288,7.0,11.0,84,0.00,,SKC,0.00,VWS V14.01,2013-03-19 12:10:00,
2013-03-19 07:14:00,11.7,8.1,29.54,West,276,5.0,5.0,85,0.00,,SKC,0.00,VWS V14.01,2013-03-19 12:14:00,
2013-03-19 07:15:00,11.8,7.9,29.58,WSW,253,8.0,10.0,84,0.00,,SKC,0.00,VWS V14.01,2013-03-19 12:15:00,
2013-03-19 07:19:00,11.7,8.1,29.55,West,276,5.0,5.0,85,0.00,,SKC,0.00,VWS V14.01,2013-03-19 12:19:00,
2013-03-19 07:20:00,11.9,8.0,29.58,WNW,287,10.0,12.0,84,0.00,,SKC,0.00,VWS V14.01,2013-03-19 12:20:00,
2013-03-19 07:24:00,11.7,8.1,29.55,West,276,5.0,5.0,85,0.00,,SKC,0.00,VWS V14.01,2013-03-19 12:24:00,
2013-03-19 07:25:00,11.9,8.0,29.58,West,272,5.0,14.0,84,0.00,,SKC,0.00,VWS V14.01,2013-03-19 12:25:00,
2013-03-19 07:29:00,11.7,8.1,29.55,West,276,5.0,5.0,85,0.00,,SKC,0.00,VWS V14.01,2013-03-19 12:29:00,
2013-03-19 07:30:00,11.9,8.0,29.58,WSW,256,7.0,15.0,84,0.00,,SKC,0.00,VWS V14.01,2013-03-19 12:30:00,
2013-03-19 07:34:00,11.7,8.1,29.56,West,276,5.0,5.0,85,0.00,,SKC,0.00,VWS V14.01,2013-03-19 12:34:00,
2013-03-19 07:35:00,12.0,7.8,29.58,WNW,283,4.0,12.0,83,0.00,,SKC,0.00,VWS V14.01,2013-03-19 12:35:00,
2013-03-19 07:39:00,11.7,8.1,29.56,West,276,5.0,5.0,85,0.00,,SKC,0.00,VWS V14.01,2013-03-19 12:39:00,
2013-03-19 07:40:00,11.9,7.7,29.58,WNW,295,3.0,11.0,83,0.00,,SKC,0.00,VWS V14.01,2013-03-19 12:40:00,
2013-03-19 07:44:00,11.7,8.1,29.56,West,276,5.0,5.0,85,0.00,,SKC,0.00,VWS V14.01,2013-03-19 12:44:00,
2013-03-19 07:45:00,12.0,7.8,29.59,WNW,300,4.0,9.0,83,0.00,,SKC,0.00,VWS V14.01,2013-03-19 12:45:00,
2013-03-19 07:49:00,11.7,8.1,29.56,West,276,5.0,5.0,85,0.00,,SKC,0.00,VWS V14.01,2013-03-19 12:49:00,
2013-03-19 07:50:00,11.9,7.7,29.59,WNW,291,9.0,9.0,83,0.00,,SKC,0.00,VWS V14.01,2013-03-19 12:50:00,
2013-03-19 07:54:00,11.7,8.1,29.56,West,276,5.0,5.0,85,0.00,,SKC,0.00,VWS V14.01,2013-03-19 12:54:00,
2013-03-19 07:55:00,11.9,7.7,29.59,NW,311,9.0,13.0,83,0.00,,SKC,0.00,VWS V14.01,2013-03-19 12:55:00,
2013-03-19 07:59:00,11.7,8.1,29.56,West,276,5.0,5.0,85,0.00,,SKC,0.00,VWS V14.01,2013-03-19 12:59:00,
2013-03-19 08:00:00,12.0,7.6,29.59,West,265,6.0,14.0,82,0.00,,SKC,0.00,VWS V14.01,2013-03-19 13:00:00,
2013-03-19 08:04:00,11.7,8.1,29.57,WSW,254,6.0,6.0,85,0.00,,SKC,0.00,VWS V14.01,2013-03-19 13:04:00,
2013-03-19 08:05:00,12.1,7.7,29.59,WNW,283,6.0,13.0,82,0.00,,SKC,0.00,VWS V14.01,2013-03-19 13:05:00,
2013-03-19 08:09:00,11.8,7.9,29.57,WNW,288,5.0,9.0,84,0.00,,SKC,0.00,VWS V14.01,2013-03-19 13:09:00,
2013-03-19 08:10:00,12.2,7.8,29.59,West,268,2.0,11.0,82,0.00,,SKC,0.00,VWS V14.01,2013-03-19 13:10:00,
2013-03-19 08:14:00,11.8,7.9,29.57,West,269,5.0,9.0,84,0.00,,SKC,0.00,VWS V14.01,2013-03-19 13:14:00,
2013-03-19 08:15:00,12.3,7.9,29.60,WNW,292,3.0,13.0,82,0.00,,SKC,0.00,VWS V14.01,2013-03-19 13:15:00,
2013-03-19 08:19:00,11.8,7.9,29.58,WSW,252,4.0,12.0,84,0.00,,SKC,0.00,VWS V14.01,2013-03-19 13:19:00,
2013-03-19 08:20:00,12.5,7.8,29.60,West,276,2.0,10.0,81,0.00,,SKC,0.00,VWS V14.01,2013-03-19 13:20:00,
2013-03-19 08:24:00,11.9,8.0,29.58,West,280,5.0,10.0,84,0.00,,SKC,0.00,VWS V14.01,2013-03-19 13:24:00,
2013-03-19 08:25:00,12.8,8.4,29.60,West,265,5.0,8.0,82,0.00,,SKC,0.00,VWS V14.01,2013-03-19 13:25:00,
2013-03-19 08:29:00,11.9,8.0,29.58,West,279,4.0,8.0,84,0.00,,SKC,0.00,VWS V14.01,2013-03-19 13:29:00,
2013-03-19 08:30:00,12.9,8.2,29.60,West,272,4.0,13.0,81,0.00,,SKC,0.00,VWS V14.01,2013-03-19 13:30:00,
2013-03-19 08:34:00,12.0,7.8,29.58,WSW,253,4.0,10.0,83,0.00,,SKC,0.00,VWS V14.01,2013-03-19 13:34:00,
2013-03-19 08:35:00,13.1,8.4,29.60,WNW,299,3.0,12.0,81,0.00,,SKC,0.00,VWS V14.01,2013-03-19 13:35:00,
2013-03-19 08:39:00,12.0,7.8,29.58,WNW,303,6.0,11.0,83,0.00,,SKC,0.00,VWS V14.01,2013-03-19 13:39:00,
2013-03-19 08:40:00,13.4,8.7,29.60,West,281,2.0,13.0,81,0.00,,SKC,0.00,VWS V14.01,2013-03-19 13:40:00,
2013-03-19 08:44:00,11.9,7.7,29.58,West,264,6.0,8.0,83,0.00,,SKC,0.00,VWS V14.01,2013-03-19 13:44:00,
2013-03-19 08:45:00,13.7,9.0,29.61,West,279,6.0,8.0,81,0.00,,SKC,0.00,VWS V14.01,2013-03-19 13:45:00,
2013-03-19 08:49:00,12.0,7.8,29.59,WNW,289,4.0,8.0,83,0.00,,SKC,0.00,VWS V14.01,2013-03-19 13:49:00,
2013-03-19 08:50:00,13.8,9.1,29.61,West,277,5.0,16.0,81,0.00,,SKC,0.00,VWS V14.01,2013-03-19 13:50:00,
2013-03-19 08:54:00,11.9,7.7,29.59,WNW,286,8.0,10.0,83,0.00,,SKC,0.00,VWS V14.01,2013-03-19 13:54:00,
2013-03-19 08:55:00,14.0,9.0,29.61,WSW,248,6.0,15.0,80,0.00,,SKC,0.00,VWS V14.01,2013-03-19 13:55:00,
2013-03-19 08:59:00,11.9,7.7,29.59,West,260,4.0,14.0,83,0.00,,SKC,0.00,VWS V14.01,2013-03-19 13:59:00,
2013-03-19 09:00:00,14.3,9.3,29.61,WSW,257,3.0,8.0,80,0.00,,SKC,0.00,VWS V14.01,2013-03-19 14:00:00,
2013-03-19 09:04:00,12.0,7.6,29.59,West,267,5.0,11.0,82,0.00,,SKC,0.00,VWS V14.01,2013-03-19 14:04:00,
2013-03-19 09:05:00,14.4,9.1,29.61,West,275,8.0,13.0,79,0.00,,SKC,0.00,VWS V14.01,2013-03-19 14:05:00,
2013-03-19 09:09:00,12.2,7.8,29.59,West,259,7.0,11.0,82,0.00,,SKC,0.00,VWS V14.01,2013-03-19 14:09:00,
2013-03-19 09:10:00,14.5,9.5,29.61,WSW,254,4.0,13.0,80,0.00,,SKC,0.00,VWS V14.01,2013-03-19 14:10:00,
2013-03-19 09:14:00,12.2,7.8,29.59,West,273,8.0,13.0,82,0.00,,SKC,0.00,VWS V14.01,2013-03-19 14:14:00,
2013-03-19 09:15:00,14.9,9.6,29.62,WSW,253,9.0,12.0,79,0.00,,SKC,0.00,VWS V14.01,2013-03-19 14:15:00,
2013-03-19 09:19:00,12.4,8.0,29.60,West,267,3.0,7.0,82,0.00,,SKC,0.00,VWS V14.01,2013-03-19 14:19:00,
2013-03-19 09:20:00,15.1,9.8,29.62,West,263,14.0,14.0,79,0.00,,SKC,0.00,VWS V14.01,2013-03-19 14:20:00,
2013-03-19 09:24:00,12.6,8.2,29.60,WNW,296,3.0,8.0,82,0.00,,SKC,0.00,VWS V14.01,2013-03-19 14:24:00,
2013-03-19 09:25:00,15.4,10.1,29.62,WNW,289,5.0,15.0,79,0.00,,SKC,0.00,VWS V14.01,2013-03-19 14:25:00,
2013-03-19 09:29:00,12.8,8.1,29.60,NW,316,5.0,9.0,81,0.00,,SKC,0.00,VWS V14.01,2013-03-19 14:29:00,
2013-03-19 09:30:00,15.7,10.1,29.63,West,277,5.0,8.0,78,0.00,,SKC,0.00,VWS V14.01,2013-03-19 14:30:00,
2013-03-19 09:34:00,13.0,8.3,29.60,West,259,6.0,12.0,81,0.00,,SKC,0.00,VWS V14.01,2013-03-19 14:34:00,
2013-03-19 09:35:00,15.5,9.9,29.63,West,277,3.0,16.0,78,0.00,,SKC,0.00,VWS V14.01,2013-03-19 14:35:00,
2013-03-19 09:39:00,13.3,8.6,29.60,WNW,283,4.0,13.0,81,0.00,,SKC,0.00,VWS V14.01,2013-03-19 14:39:00,
2013-03-19 09:40:00,15.6,10.0,29.63,WNW,294,13.0,16.0,78,0.00,,SKC,0.00,VWS V14.01,2013-03-19 14:40:00,
2013-03-19 09:44:00,13.5,8.8,29.60,West,267,7.0,7.0,81,0.00,,SKC,0.00,VWS V14.01,2013-03-19 14:44:00,
2013-03-19 09:45:00,15.8,10.2,29.64,WNW,286,8.0,14.0,78,0.00,,SKC,0.00,VWS V14.01,2013-03-19 14:45:00,
2013-03-19 09:49:00,13.7,8.7,29.61,WSW,257,5.0,16.0,80,0.00,,SKC,0.00,VWS V14.01,2013-03-19 14:49:00,
2013-03-19 09:50:00,15.9,10.3,29.64,West,274,4.0,15.0,78,0.00,,SKC,0.00,VWS V14.01,2013-03-19 14:50:00,
2013-03-19 09:54:00,13.9,8.9,29.61,WNW,288,6.0,15.0,80,0.00,,SKC,0.00,VWS V14.01,2013-03-19 14:54:00,
2013-03-19 09:55:00,16.1,10.2,29.64,WNW,283,6.0,21.0,77,0.00,,SKC,0.00,VWS V14.01,2013-03-19 14:55:00,
2013-03-19 09:59:00,14.1,9.1,29.61,West,267,3.0,8.0,80,0.00,,SKC,0.00,VWS V14.01,2013-03-19 14:59:00,
2013-03-19 10:00:00,16.7,10.8,29.64,WNW,286,3.0,13.0,77,0.00,,SKC,0.00,VWS V14.01,2013-03-19 15:00:00,
2013-03-19 10:04:00,14.4,9.4,29.61,West,267,3.0,8.0,80,0.00,,SKC,0.00,VWS V14.01,2013-03-19 15:04:00,
2013-03-19 10:05:00,17.1,11.1,29.64,WNW,291,6.0,12.0,77,0.00,,SKC,0.00,VWS V14.01,2013-03-19 15:05:00,
2013-03-19 10:09:00,14.4,9.1,29.61,West,277,3.0,8.0,79,0.00,,SKC,0.00,VWS V14.01,2013-03-19 15:09:00,
2013-03-19 10:10:00,17.4,11.1,29.64,West,267,6.0,10.0,76,0.00,,SKC,0.00,VWS V14.01,2013-03-19 15:10:00,
2013-03-19 10:14:00,14.7,9.7,29.61,West,281,12.0,12.0,80,0.00,,SKC,0.00,VWS V14.01,2013-03-19 15:14:00,
2013-03-19 10:15:00,17.8,11.5,29.65,WSW,250,8.0,13.0,76,0.00,,SKC,0.00,VWS V14.01,2013-03-19 15:15:00,
2013-03-19 10:19:00,15.0,9.7,29.62,West,264,7.0,13.0,79,0.00,,SKC,0.00,VWS V14.01,2013-03-19 15:19:00,
2013-03-19 10:20:00,17.8,11.5,29.65,West,260,10.0,12.0,76,0.00,,SKC,0.00,VWS V14.01,2013-03-19 15:20:00,
2013-03-19 10:24:00,15.2,9.6,29.62,West,272,5.0,15.0,78,0.00,,SKC,0.00,VWS V14.01,2013-03-19 15:24:00,
2013-03-19 10:25:00,17.8,11.5,29.65,West,275,5.0,12.0,76,0.00,,SKC,0.00,VWS V14.01,2013-03-19 15:25:00,
2013-03-19 10:29:00,15.5,9.9,29.62,West,264,3.0,7.0,78,0.00,,SKC,0.00,VWS V14.01,2013-03-19 15:29:00,
2013-03-19 10:30:00,18.0,11.7,29.66,WNW,283,5.0,13.0,76,0.00,,SKC,0.00,VWS V14.01,2013-03-19 15:30:00,
2013-03-19 10:34:00,15.6,10.0,29.63,West,264,5.0,16.0,78,0.00,,SKC,0.00,VWS V14.01,2013-03-19 15:34:00,
2013-03-19 10:35:00,18.4,11.8,29.66,West,267,6.0,15.0,75,0.00,,SKC,0.00,VWS V14.01,2013-03-19 15:35:00,
2013-03-19 10:40:00,15.6,10.0,29.63,WSW,245,6.0,11.0,78,0.00,,SKC,0.00,VWS V14.01,2013-03-19 15:40:00,
2013-03-19 10:45:00,15.6,10.0,29.63,WNW,294,4.0,14.0,78,0.00,,SKC,0.00,VWS V14.01,2013-03-19 15:45:00,
2013-03-19 10:50:00,15.9,10.0,29.64,WNW,295,11.0,11.0,77,0.00,,SKC,0.00,VWS V14.01,2013-03-19 15:50:00,
2013-03-19 10:55:00,16.0,10.4,29.64,West,279,14.0,14.0,78,0.00,,SKC,0.00,VWS V14.01,2013-03-19 15:55:00,
2013-03-19 11:00:00,16.4,10.5,29.64,WSW,253,6.0,10.0,77,0.00,,SKC,0.00,VWS V14.01,2013-03-19 16:00:00,
2013-03-19 11:05:00,16.9,10.9,29.64,NNW,328,2.0,8.0,77,0.00,,SKC,0.00,VWS V14.01,2013-03-19 16:05:00,
2013-03-19 11:10:00,17.2,10.9,29.64,West,267,4.0,10.0,76,0.00,,SKC,0.00,VWS V14.01,2013-03-19 16:10:00,
2013-03-19 11:15:00,17.8,11.5,29.64,West,272,8.0,13.0,76,0.00,,SKC,0.00,VWS V14.01,2013-03-19 16:15:00,
2013-03-19 11:20:00,17.8,11.5,29.65,WSW,246,8.0,11.0,76,0.00,,SKC,0.00,VWS V14.01,2013-03-19 16:20:00,
2013-03-19 11:25:00,17.8,11.5,29.65,WSW,248,9.0,12.0,76,0.00,,SKC,0.00,VWS V14.01,2013-03-19 16:25:00,
2013-03-19 11:30:00,17.8,11.5,29.65,West,271,3.0,11.0,76,0.00,,SKC,0.00,VWS V14.01,2013-03-19 16:30:00,
2013-03-19 11:35:00,18.4,12.1,29.66,WSW,253,7.0,15.0,76,0.00,,SKC,0.00,VWS V14.01,2013-03-19 16:35:00,
2013-03-19 11:40:00,18.3,11.7,29.66,WSW,248,6.0,16.0,75,0.00,,SKC,0.00,VWS V14.01,2013-03-19 16:40:00,
2013-03-19 11:45:00,18.6,12.0,29.66,WNW,283,6.0,15.0,75,0.00,,SKC,0.00,VWS V14.01,2013-03-19 16:45:00,
2013-03-19 11:50:00,19.0,12.7,29.66,West,280,12.0,13.0,76,0.00,,SKC,0.00,VWS V14.01,2013-03-19 16:50:00,
2013-03-19 11:55:00,19.1,12.5,29.66,WNW,287,8.0,10.0,75,0.00,,SKC,0.00,VWS V14.01,2013-03-19 16:55:00,
2013-03-19 12:00:00,19.4,12.8,29.66,West,272,6.0,14.0,75,0.00,,SKC,0.00,VWS V14.01,2013-03-19 17:00:00,
2013-03-19 12:05:00,19.4,13.1,29.67,West,280,4.0,11.0,76,0.00,,SKC,0.00,VWS V14.01,2013-03-19 17:05:00,
2013-03-19 12:10:00,19.5,12.9,29.67,West,280,5.0,9.0,75,0.00,,SKC,0.00,VWS V14.01,2013-03-19 17:10:00,
2013-03-19 12:15:00,19.5,12.9,29.67,West,271,8.0,16.0,75,0.00,,SKC,0.00,VWS V14.01,2013-03-19 17:15:00,
2013-03-19 12:20:00,19.7,13.4,29.67,WSW,249,8.0,9.0,76,0.00,,SKC,0.00,VWS V14.01,2013-03-19 17:20:00,
2013-03-19 12:25:00,19.9,13.3,29.67,West,274,8.0,14.0,75,0.00,,SKC,0.00,VWS V14.01,2013-03-19 17:25:00,
2013-03-19 12:30:00,20.0,13.1,29.67,WNW,292,7.0,13.0,74,0.00,,SKC,0.00,VWS V14.01,2013-03-19 17:30:00,
2013-03-19 12:35:00,20.4,13.4,29.68,West,271,4.0,11.0,74,0.00,,SKC,0.00,VWS V14.01,2013-03-19 17:35:00,
2013-03-19 12:40:00,21.1,13.8,29.68,NW,316,4.0,10.0,73,0.00,,SKC,0.00,VWS V14.01,2013-03-19 17:40:00,
2013-03-19 12:45:00,21.1,13.5,29.68,WSW,249,5.0,11.0,72,0.00,,SKC,0.00,VWS V14.01,2013-03-19 17:45:00,
2013-03-19 12:50:00,21.9,14.3,29.68,West,273,15.0,15.0,72,0.00,,SKC,0.00,VWS V14.01,2013-03-19 17:50:00,
2013-03-19 12:55:00,22.5,14.5,29.68,WNW,284,12.0,12.0,71,0.00,,SKC,0.00,VWS V14.01,2013-03-19 17:55:00,
2013-03-19 13:00:00,22.4,14.4,29.68,WNW,286,8.0,15.0,71,0.00,,SKC,0.00,VWS V14.01,2013-03-19 18:00:00,
2013-03-19 13:05:00,22.1,14.1,29.68,WSW,248,9.0,12.0,71,0.00,,SKC,0.00,VWS V14.01,2013-03-19 18:05:00,
2013-03-19 13:10:00,21.7,13.8,29.68,West,275,6.0,17.0,71,0.00,,SKC,0.00,VWS V14.01,2013-03-19 18:10:00,
2013-03-19 13:15:00,22.1,14.5,29.68,WSW,241,7.0,10.0,72,0.00,,SKC,0.00,VWS V14.01,2013-03-19 18:15:00,
2013-03-19 13:20:00,23.1,14.8,29.69,West,273,7.0,12.0,70,0.00,,SKC,0.00,VWS V14.01,2013-03-19 18:20:00,
2013-03-19 13:25:00,23.4,14.4,29.69,West,273,6.0,16.0,68,0.00,,SKC,0.00,VWS V14.01,2013-03-19 18:25:00,
2013-03-19 13:30:00,23.9,15.2,29.69,WNW,300,4.0,14.0,69,0.00,,SKC,0.00,VWS V14.01,2013-03-19 18:30:00,
2013-03-19 13:35:00,26.0,14.4,29.70,West,277,8.0,20.0,61,0.00,,SKC,0.00,VWS V14.01,2013-03-19 18:35:00,
2013-03-19 13:36:00,24.7,15.7,29.69,WNW,290,8.0,9.0,68,0.00,,SKC,0.00,VWS V14.01,2013-03-19 18:36:00,
2013-03-19 13:40:00,25.8,14.2,29.70,WSW,257,7.0,13.0,61,0.00,,SKC,0.00,VWS V14.01,2013-03-19 18:40:00,
2013-03-19 13:41:00,24.8,15.4,29.69,West,272,3.0,14.0,67,0.00,,SKC,0.00,VWS V14.01,2013-03-19 18:41:00,
2013-03-19 13:45:00,26.2,13.8,29.71,WNW,294,14.0,17.0,59,0.00,,SKC,0.00,VWS V14.01,2013-03-19 18:45:00,
2013-03-19 13:46:00,24.9,14.8,29.69,WNW,302,6.0,14.0,65,0.00,,SKC,0.00,VWS V14.01,2013-03-19 18:46:00,
2013-03-19 13:50:00,26.0,13.6,29.71,WNW,288,8.0,14.0,59,0.00,,SKC,0.00,VWS V14.01,2013-03-19 18:50:00,
2013-03-19 13:51:00,25.0,15.3,29.69,WSW,252,9.0,15.0,66,0.00,,SKC,0.00,VWS V14.01,2013-03-19 18:51:00,
2013-03-19 13:55:00,25.6,13.3,29.71,WNW,290,6.0,16.0,59,0.00,,SKC,0.00,VWS V14.01,2013-03-19 18:55:00,
2013-03-19 13:56:00,24.6,14.9,29.69,WNW,298,6.0,17.0,66,0.00,,SKC,0.00,VWS V14.01,2013-03-19 18:56:00,
2013-03-19 14:00:00,25.9,12.8,29.71,WNW,289,10.0,18.0,57,0.00,,SKC,0.00,VWS V14.01,2013-03-19 19:00:00,
2013-03-19 14:01:00,24.7,14.6,29.69,West,264,3.0,12.0,65,0.00,,SKC,0.00,VWS V14.01,2013-03-19 19:01:00,
2013-03-19 14:05:00,25.5,13.2,29.71,West,265,8.0,14.0,59,0.00,,SKC,0.00,VWS V14.01,2013-03-19 19:05:00,
2013-03-19 14:06:00,25.6,15.5,29.70,WSW,254,11.0,13.0,65,0.00,,SKC,0.00,VWS V14.01,2013-03-19 19:06:00,
2013-03-19 14:10:00,26.1,13.4,29.71,SSW,210,5.0,18.0,58,0.00,,SKC,0.00,VWS V14.01,2013-03-19 19:10:00,
2013-03-19 14:11:00,25.4,14.9,29.70,West,263,9.0,11.0,64,0.00,,SKC,0.00,VWS V14.01,2013-03-19 19:11:00,
2013-03-19 14:15:00,26.5,13.3,29.72,WSW,253,7.0,18.0,57,0.00,,SKC,0.00,VWS V14.01,2013-03-19 19:15:00,
2013-03-19 14:16:00,25.7,15.2,29.70,West,265,3.0,16.0,64,0.00,,SKC,0.00,VWS V14.01,2013-03-19 19:16:00,
2013-03-19 14:20:00,26.4,12.8,29.72,WSW,238,6.0,20.0,56,0.00,,SKC,0.00,VWS V14.01,2013-03-19 19:20:00,
2013-03-19 14:21:00,25.6,14.8,29.70,West,268,7.0,14.0,63,0.00,,SKC,0.00,VWS V14.01,2013-03-19 19:21:00,
2013-03-19 14:25:00,26.7,12.7,29.72,West,270,17.0,17.0,55,0.00,,SKC,0.00,VWS V14.01,2013-03-19 19:25:00,
2013-03-19 14:26:00,25.4,14.6,29.70,West,265,9.0,12.0,63,0.00,,SKC,0.00,VWS V14.01,2013-03-19 19:26:00,
2013-03-19 14:30:00,27.1,12.2,29.72,West,265,7.0,17.0,53,0.00,,SKC,0.00,VWS V14.01,2013-03-19 19:30:00,
2013-03-19 14:31:00,26.1,15.2,29.70,WSW,253,7.0,17.0,63,0.00,,SKC,0.00,VWS V14.01,2013-03-19 19:31:00,
2013-03-19 14:35:00,27.5,12.2,29.72,WSW,257,5.0,16.0,52,0.00,,SKC,0.00,VWS V14.01,2013-03-19 19:35:00,
2013-03-19 14:36:00,26.0,14.0,29.70,WNW,300,4.0,20.0,60,0.00,,SKC,0.00,VWS V14.01,2013-03-19 19:36:00,
2013-03-19 14:40:00,28.0,11.8,29.72,West,275,6.0,17.0,50,0.00,,SKC,0.00,VWS V14.01,2013-03-19 19:40:00,
2013-03-19 14:42:00,25.8,14.6,29.70,West,277,6.0,13.0,62,0.00,,SKC,0.00,VWS V14.01,2013-03-19 19:42:00,
2013-03-19 14:45:00,28.4,12.1,29.72,West,280,6.0,12.0,50,0.00,,SKC,0.00,VWS V14.01,2013-03-19 19:45:00,
2013-03-19 14:47:00,26.1,14.1,29.71,West,269,5.0,17.0,60,0.00,,SKC,0.00,VWS V14.01,2013-03-19 19:47:00,
2013-03-19 14:50:00,28.1,11.4,29.72,West,278,12.0,22.0,49,0.00,,SKC,0.00,VWS V14.01,2013-03-19 19:50:00,
2013-03-19 14:52:00,26.1,13.8,29.71,West,279,8.0,14.0,59,0.00,,SKC,0.00,VWS V14.01,2013-03-19 19:52:00,
2013-03-19 14:55:00,27.3,10.7,29.72,WNW,282,7.0,24.0,49,0.00,,SKC,0.00,VWS V14.01,2013-03-19 19:55:00,
2013-03-19 14:57:00,25.7,13.4,29.71,WNW,284,4.0,16.0,59,0.00,,SKC,0.00,VWS V14.01,2013-03-19 19:57:00,
2013-03-19 15:00:00,26.5,10.4,29.74,WSW,254,7.0,24.0,50,0.00,,SKC,0.00,VWS V14.01,2013-03-19 20:00:00,
2013-03-19 15:02:00,25.9,12.8,29.71,WNW,303,5.0,18.0,57,0.00,,SKC,0.00,VWS V14.01,2013-03-19 20:02:00,
2013-03-19 15:05:00,26.9,10.8,29.74,West,263,6.0,11.0,50,0.00,,SKC,0.00,VWS V14.01,2013-03-19 20:05:00,
2013-03-19 15:07:00,25.5,13.2,29.71,WSW,253,7.0,14.0,59,0.00,,SKC,0.00,VWS V14.01,2013-03-19 20:07:00,
2013-03-19 15:10:00,27.2,11.0,29.74,West,271,6.0,16.0,50,0.00,,SKC,0.00,VWS V14.01,2013-03-19 20:10:00,
2013-03-19 15:12:00,26.1,13.4,29.71,WSW,250,6.0,18.0,58,0.00,,SKC,0.00,VWS V14.01,2013-03-19 20:12:00,
2013-03-19 15:15:00,27.0,10.9,29.74,West,277,14.0,19.0,50,0.00,,SKC,0.00,VWS V14.01,2013-03-19 20:15:00,
2013-03-19 15:17:00,26.5,13.3,29.72,WNW,290,5.0,18.0,57,0.00,,SKC,0.00,VWS V14.01,2013-03-19 20:17:00,
2013-03-19 15:20:00,26.9,10.3,29.74,WNW,300,7.0,15.0,49,0.00,,SKC,0.00,VWS V14.01,2013-03-19 20:20:00,
2013-03-19 15:22:00,26.4,12.8,29.72,WSW,238,6.0,20.0,56,0.00,,SKC,0.00,VWS V14.01,2013-03-19 20:22:00,
2013-03-19 15:25:00,26.7,10.6,29.74,West,260,12.0,16.0,50,0.00,,SKC,0.00,VWS V14.01,2013-03-19 20:25:00,
2013-03-19 15:27:00,26.7,12.7,29.72,West,270,17.0,17.0,55,0.00,,SKC,0.00,VWS V14.01,2013-03-19 20:27:00,
2013-03-19 15:30:00,26.4,9.8,29.75,West,263,9.0,13.0,49,0.00,,SKC,0.00,VWS V14.01,2013-03-19 20:30:00,
2013-03-19 15:32:00,27.1,12.2,29.72,West,265,7.0,17.0,53,0.00,,SKC,0.00,VWS V14.01,2013-03-19 20:32:00,
2013-03-19 15:35:00,26.3,10.2,29.75,NW,306,16.0,16.0,50,0.00,,SKC,0.00,VWS V14.01,2013-03-19 20:35:00,
2013-03-19 15:37:00,27.5,12.2,29.72,WSW,257,5.0,16.0,52,0.00,,SKC,0.00,VWS V14.01,2013-03-19 20:37:00,
2013-03-19 15:40:00,26.2,9.2,29.75,West,279,5.0,16.0,48,0.00,,SKC,0.00,VWS V14.01,2013-03-19 20:40:00,
2013-03-19 15:42:00,28.0,11.8,29.72,West,269,5.0,6.0,50,0.00,,SKC,0.00,VWS V14.01,2013-03-19 20:42:00,
2013-03-19 15:45:00,26.3,9.3,29.76,West,260,5.0,15.0,48,0.00,,SKC,0.00,VWS V14.01,2013-03-19 20:45:00,
2013-03-19 15:47:00,28.4,12.1,29.72,West,280,6.0,12.0,50,0.00,,SKC,0.00,VWS V14.01,2013-03-19 20:47:00,
2013-03-19 15:50:00,26.5,9.9,29.76,NW,313,4.0,17.0,49,0.00,,SKC,0.00,VWS V14.01,2013-03-19 20:50:00,
2013-03-19 15:52:00,28.1,11.4,29.72,West,278,12.0,22.0,49,0.00,,SKC,0.00,VWS V14.01,2013-03-19 20:52:00,
2013-03-19 15:55:00,26.4,9.4,29.76,WNW,295,6.0,15.0,48,0.00,,SKC,0.00,VWS V14.01,2013-03-19 20:55:00,
2013-03-19 15:57:00,27.3,10.7,29.72,WNW,282,7.0,24.0,49,0.00,,SKC,0.00,VWS V14.01,2013-03-19 20:57:00,
2013-03-19 16:00:00,26.5,9.9,29.76,West,275,3.0,9.0,49,0.00,,SKC,0.00,VWS V14.01,2013-03-19 21:00:00,
2013-03-19 16:02:00,26.5,10.4,29.74,WSW,254,7.0,24.0,50,0.00,,SKC,0.00,VWS V14.01,2013-03-19 21:02:00,
2013-03-19 16:05:00,26.6,9.1,29.76,WNW,294,9.0,14.0,47,0.00,,SKC,0.00,VWS V14.01,2013-03-19 21:05:00,
2013-03-19 16:07:00,26.9,10.8,29.74,West,263,6.0,11.0,50,0.00,,SKC,0.00,VWS V14.01,2013-03-19 21:07:00,
2013-03-19 16:10:00,26.2,8.3,29.76,West,261,5.0,23.0,46,0.00,,SKC,0.00,VWS V14.01,2013-03-19 21:10:00,
2013-03-19 16:12:00,27.2,11.0,29.74,WSW,254,5.0,6.0,50,0.00,,SKC,0.00,VWS V14.01,2013-03-19 21:12:00,
2013-03-19 16:15:00,26.1,8.6,29.77,WSW,254,11.0,17.0,47,0.00,,SKC,0.00,VWS V14.01,2013-03-19 21:15:00,
2013-03-19 16:17:00,27.0,10.9,29.74,West,277,14.0,19.0,50,0.00,,SKC,0.00,VWS V14.01,2013-03-19 21:17:00,
2013-03-19 16:20:00,26.1,8.2,29.77,WNW,283,8.0,15.0,46,0.00,,SKC,0.00,VWS V14.01,2013-03-19 21:20:00,
2013-03-19 16:22:00,26.9,10.3,29.74,WSW,246,13.0,13.0,49,0.00,,SKC,0.00,VWS V14.01,2013-03-19 21:22:00,
2013-03-19 16:25:00,26.0,8.1,29.77,West,280,13.0,18.0,46,0.00,,SKC,0.00,VWS V14.01,2013-03-19 21:25:00,
2013-03-19 16:27:00,26.7,10.6,29.74,West,279,8.0,12.0,50,0.00,,SKC,0.00,VWS V14.01,2013-03-19 21:27:00,
2013-03-19 16:30:00,25.7,7.3,29.78,WSW,242,10.0,17.0,45,0.00,,SKC,0.00,VWS V14.01,2013-03-19 21:30:00,
2013-03-19 16:33:00,26.4,9.8,29.75,WSW,257,7.0,11.0,49,0.00,,SKC,0.00,VWS V14.01,2013-03-19 21:33:00,
2013-03-19 16:35:00,25.5,7.6,29.78,WNW,284,6.0,22.0,46,0.00,,SKC,0.00,VWS V14.01,2013-03-19 21:35:00,
2013-03-19 16:38:00,26.3,10.2,29.75,West,269,9.0,16.0,50,0.00,,SKC,0.00,VWS V14.01,2013-03-19 21:38:00,
2013-03-19 16:40:00,25.7,7.8,29.78,West,269,5.0,13.0,46,0.00,,SKC,0.00,VWS V14.01,2013-03-19 21:40:00,
2013-03-19 16:43:00,26.2,9.7,29.75,West,259,5.0,7.0,49,0.00,,SKC,0.00,VWS V14.01,2013-03-19 21:43:00,
2013-03-19 16:45:00,25.8,8.4,29.78,WNW,286,12.0,12.0,47,0.00,,SKC,0.00,VWS V14.01,2013-03-19 21:45:00,
2013-03-19 16:48:00,26.3,9.8,29.76,West,277,16.0,17.0,49,0.00,,SKC,0.00,VWS V14.01,2013-03-19 21:48:00,
2013-03-19 16:50:00,25.7,8.3,29.78,WSW,248,8.0,19.0,47,0.00,,SKC,0.00,VWS V14.01,2013-03-19 21:50:00,
2013-03-19 16:53:00,26.6,9.6,29.76,WSW,250,3.0,7.0,48,0.00,,SKC,0.00,VWS V14.01,2013-03-19 21:53:00,
2013-03-19 16:55:00,25.8,8.4,29.78,WSW,241,4.0,16.0,47,0.00,,SKC,0.00,VWS V14.01,2013-03-19 21:55:00,
2013-03-19 16:58:00,26.4,9.4,29.76,WNW,288,3.0,7.0,48,0.00,,SKC,0.00,VWS V14.01,2013-03-19 21:58:00,
2013-03-19 17:00:00,25.6,7.7,29.79,WNW,282,8.0,17.0,46,0.00,,SKC,0.00,VWS V14.01,2013-03-19 22:00:00,
2013-03-19 17:03:00,26.7,10.1,29.76,NNE,13,6.0,9.0,49,0.00,,SKC,0.00,VWS V14.01,2013-03-19 22:03:00,
2013-03-19 17:05:00,25.4,8.0,29.79,WNW,288,7.0,14.0,47,0.00,,SKC,0.00,VWS V14.01,2013-03-19 22:05:00,
2013-03-19 17:08:00,26.5,8.5,29.76,West,263,7.0,12.0,46,0.00,,SKC,0.00,VWS V14.01,2013-03-19 22:08:00,
2013-03-19 17:10:00,25.3,7.4,29.79,WNW,286,7.0,13.0,46,0.00,,SKC,0.00,VWS V14.01,2013-03-19 22:10:00,
2013-03-19 17:13:00,26.1,8.6,29.76,WSW,252,8.0,12.0,47,0.00,,SKC,0.00,VWS V14.01,2013-03-19 22:13:00,
2013-03-19 17:15:00,25.1,7.2,29.79,NW,314,4.0,13.0,46,0.00,,SKC,0.00,VWS V14.01,2013-03-19 22:15:00,
2013-03-19 17:18:00,26.1,8.6,29.77,West,273,6.0,15.0,47,0.00,,SKC,0.00,VWS V14.01,2013-03-19 22:18:00,
2013-03-19 17:20:00,25.1,7.2,29.79,WSW,238,7.0,17.0,46,0.00,,SKC,0.00,VWS V14.01,2013-03-19 22:20:00,
2013-03-19 17:23:00,26.1,8.2,29.77,WNW,294,6.0,8.0,46,0.00,,SKC,0.00,VWS V14.01,2013-03-19 22:23:00,
2013-03-19 17:25:00,24.9,7.1,29.79,SW,235,10.0,12.0,46,0.00,,SKC,0.00,VWS V14.01,2013-03-19 22:25:00,
2013-03-19 17:28:00,25.8,7.4,29.77,West,263,13.0,16.0,45,0.00,,SKC,0.00,VWS V14.01,2013-03-19 22:28:00,
2013-03-19 17:30:00,24.6,7.3,29.80,West,267,10.0,15.0,47,0.00,,SKC,0.00,VWS V14.01,2013-03-19 22:30:00,
2013-03-19 17:33:00,25.6,7.2,29.78,West,273,8.0,22.0,45,0.00,,SKC,0.00,VWS V14.01,2013-03-19 22:33:00,
2013-03-19 17:35:00,24.3,6.5,29.80,West,279,6.0,13.0,46,0.00,,SKC,0.00,VWS V14.01,2013-03-19 22:35:00,
2013-03-19 17:38:00,25.6,8.2,29.78,WNW,287,4.0,11.0,47,0.00,,SKC,0.00,VWS V14.01,2013-03-19 22:38:00,
2013-03-19 17:40:00,24.2,6.4,29.80,WNW,288,7.0,18.0,46,0.00,,SKC,0.00,VWS V14.01,2013-03-19 22:40:00,
2013-03-19 17:43:00,25.7,8.3,29.78,WSW,255,5.0,6.0,47,0.00,,SKC,0.00,VWS V14.01,2013-03-19 22:43:00,
2013-03-19 17:45:00,24.1,6.8,29.81,West,281,6.0,7.0,47,0.00,,SKC,0.00,VWS V14.01,2013-03-19 22:45:00,
2013-03-19 17:48:00,25.7,7.3,29.78,WNW,282,8.0,19.0,45,0.00,,SKC,0.00,VWS V14.01,2013-03-19 22:48:00,
2013-03-19 17:50:00,23.8,6.5,29.81,WNW,286,3.0,8.0,47,0.00,,SKC,0.00,VWS V14.01,2013-03-19 22:50:00,
2013-03-19 17:53:00,25.7,8.3,29.78,WNW,289,4.0,8.0,47,0.00,,SKC,0.00,VWS V14.01,2013-03-19 22:53:00,
2013-03-19 17:55:00,23.6,6.8,29.81,WNW,288,4.0,10.0,48,0.00,,SKC,0.00,VWS V14.01,2013-03-19 22:55:00,
2013-03-19 17:58:00,25.7,7.8,29.78,WNW,299,14.0,14.0,46,0.00,,SKC,0.00,VWS V14.01,2013-03-19 22:58:00,
2013-03-19 18:00:00,23.3,6.1,29.81,West,273,5.0,13.0,47,0.00,,SKC,0.00,VWS V14.01,2013-03-19 23:00:00,
2013-03-19 18:03:00,25.5,7.6,29.79,WNW,286,8.0,11.0,46,0.00,,SKC,0.00,VWS V14.01,2013-03-19 23:03:00,
2013-03-19 18:05:00,23.1,5.9,29.81,WNW,284,5.0,13.0,47,0.00,,SKC,0.00,VWS V14.01,2013-03-19 23:05:00,
2013-03-19 18:08:00,25.3,7.4,29.79,WSW,254,7.0,7.0,46,0.00,,SKC,0.00,VWS V14.01,2013-03-19 23:08:00,
2013-03-19 18:10:00,22.8,5.6,29.81,WNW,303,7.0,13.0,47,0.00,,SKC,0.00,VWS V14.01,2013-03-19 23:10:00,
2013-03-19 18:13:00,25.2,7.3,29.79,WSW,248,8.0,12.0,46,0.00,,SKC,0.00,VWS V14.01,2013-03-19 23:13:00,
2013-03-19 18:15:00,22.8,5.6,29.82,West,277,5.0,15.0,47,0.00,,SKC,0.00,VWS V14.01,2013-03-19 23:15:00,
2013-03-19 18:18:00,25.1,7.7,29.79,WNW,296,4.0,8.0,47,0.00,,SKC,0.00,VWS V14.01,2013-03-19 23:18:00,
2013-03-19 18:20:00,22.5,5.8,29.82,WSW,257,3.0,17.0,48,0.00,,SKC,0.00,VWS V14.01,2013-03-19 23:20:00,
2013-03-19 18:23:00,25.0,7.2,29.79,West,267,3.0,8.0,46,0.00,,SKC,0.00,VWS V14.01,2013-03-19 23:23:00,
2013-03-19 18:25:00,22.4,5.2,29.82,West,281,4.0,15.0,47,0.00,,SKC,0.00,VWS V14.01,2013-03-19 23:25:00,
2013-03-19 18:28:00,24.8,7.0,29.79,West,280,11.0,11.0,46,0.00,,SKC,0.00,VWS V14.01,2013-03-19 23:28:00,
2013-03-19 18:30:00,22.1,5.4,29.82,West,271,2.0,11.0,48,0.00,,SKC,0.00,VWS V14.01,2013-03-19 23:30:00,
2013-03-19 18:34:00,24.5,6.7,29.80,West,264,8.0,10.0,46,0.00,,SKC,0.00,VWS V14.01,2013-03-19 23:34:00,
2013-03-19 18:35:00,21.7,5.5,29.82,West,261,6.0,7.0,49,0.00,,SKC,0.00,VWS V14.01,2013-03-19 23:35:00,
2013-03-19 18:39:00,24.3,6.5,29.80,WNW,289,14.0,18.0,46,0.00,,SKC,0.00,VWS V14.01,2013-03-19 23:39:00,
2013-03-19 18:40:00,21.5,5.3,29.82,WNW,286,4.0,7.0,49,0.00,,SKC,0.00,VWS V14.01,2013-03-19 23:40:00,
2013-03-19 18:44:00,24.2,6.9,29.80,West,265,3.0,7.0,47,0.00,,SKC,0.00,VWS V14.01,2013-03-19 23:44:00,
2013-03-19 18:45:00,21.5,5.3,29.82,West,275,3.0,12.0,49,0.00,,SKC,0.00,VWS V14.01,2013-03-19 23:45:00,
2013-03-19 18:49:00,24.0,6.7,29.81,WNW,287,4.0,7.0,47,0.00,,SKC,0.00,VWS V14.01,2013-03-19 23:49:00,
2013-03-19 18:50:00,21.4,5.7,29.82,WNW,288,7.0,8.0,50,0.00,,SKC,0.00,VWS V14.01,2013-03-19 23:50:00,
2013-03-19 18:54:00,23.8,6.5,29.81,WNW,283,5.0,10.0,47,0.00,,SKC,0.00,VWS V14.01,2013-03-19 23:54:00,
2013-03-19 18:55:00,21.3,5.6,29.82,WSW,257,5.0,10.0,50,0.00,,SKC,0.00,VWS V14.01,2013-03-19 23:55:00,
2013-03-19 18:59:00,23.5,6.2,29.81,WSW,250,4.0,11.0,47,0.00,,SKC,0.00,VWS V14.01,2013-03-19 23:59:00,
2013-03-19 19:00:00,21.1,5.4,29.83,West,272,3.0,10.0,50,0.00,,SKC,0.00,VWS V14.01,2013-03-20 00:00:00,
2013-03-19 19:04:00,23.2,6.4,29.81,West,280,5.0,9.0,48,0.00,,SKC,0.00,VWS V14.01,2013-03-20 00:04:00,
2013-03-19 19:05:00,20.9,5.2,29.83,West,280,4.0,9.0,50,0.00,,SKC,0.00,VWS V14.01,2013-03-20 00:05:00,
2013-03-19 19:09:00,22.9,6.2,29.81,NW,306,3.0,10.0,48,0.00,,SKC,0.00,VWS V14.01,2013-03-20 00:09:00,
2013-03-19 19:10:00,20.7,5.9,29.83,West,265,2.0,6.0,52,0.00,,SKC,0.00,VWS V14.01,2013-03-20 00:10:00,
2013-03-19 19:14:00,22.8,5.6,29.81,West,277,6.0,15.0,47,0.00,,SKC,0.00,VWS V14.01,2013-03-20 00:14:00,
2013-03-19 19:15:00,20.4,5.6,29.84,WSW,256,3.0,5.0,52,0.00,,SKC,0.00,VWS V14.01,2013-03-20 00:15:00,
2013-03-19 19:19:00,22.7,6.0,29.82,West,280,5.0,5.0,48,0.00,,SKC,0.00,VWS V14.01,2013-03-20 00:19:00,
2013-03-19 19:20:00,20.2,5.4,29.84,WNW,302,5.0,7.0,52,0.00,,SKC,0.00,VWS V14.01,2013-03-20 00:20:00,
2013-03-19 19:24:00,22.4,5.7,29.82,West,281,8.0,12.0,48,0.00,,SKC,0.00,VWS V14.01,2013-03-20 00:24:00,
2013-03-19 19:25:00,20.3,5.1,29.84,West,263,3.0,10.0,51,0.00,,SKC,0.00,VWS V14.01,2013-03-20 00:25:00,
2013-03-19 19:29:00,22.3,5.6,29.82,WNW,291,6.0,11.0,48,0.00,,SKC,0.00,VWS V14.01,2013-03-20 00:29:00,
2013-03-19 19:30:00,20.0,5.2,29.84,West,263,4.0,10.0,52,0.00,,SKC,0.00,VWS V14.01,2013-03-20 00:30:00,
2013-03-19 19:34:00,22.0,5.3,29.82,WSW,255,3.0,3.0,48,0.00,,SKC,0.00,VWS V14.01,2013-03-20 00:34:00,
2013-03-19 19:35:00,19.9,5.1,29.84,West,280,2.0,6.0,52,0.00,,SKC,0.00,VWS V14.01,2013-03-20 00:35:00,
2013-03-19 19:39:00,21.7,5.5,29.82,West,273,1.0,7.0,49,0.00,,SKC,0.00,VWS V14.01,2013-03-20 00:39:00,
2013-03-19 19:40:00,19.6,5.3,29.84,West,267,3.0,12.0,53,0.00,,SKC,0.00,VWS V14.01,2013-03-20 00:40:00,
2013-03-19 19:44:00,21.5,5.3,29.82,WNW,291,7.0,7.0,49,0.00,,SKC,0.00,VWS V14.01,2013-03-20 00:44:00,
2013-03-19 19:45:00,19.5,5.2,29.85,WSW,242,4.0,8.0,53,0.00,,SKC,0.00,VWS V14.01,2013-03-20 00:45:00,
2013-03-19 19:49:00,21.5,5.8,29.82,West,270,3.0,8.0,50,0.00,,SKC,0.00,VWS V14.01,2013-03-20 00:49:00,
2013-03-19 19:50:00,19.4,5.1,29.85,WNW,282,2.0,10.0,53,0.00,,SKC,0.00,VWS V14.01,2013-03-20 00:50:00,
2013-03-19 19:54:00,21.3,6.0,29.82,NW,321,4.0,8.0,51,0.00,,SKC,0.00,VWS V14.01,2013-03-20 00:54:00,
2013-03-19 19:55:00,19.3,5.0,29.85,West,265,6.0,10.0,53,0.00,,SKC,0.00,VWS V14.01,2013-03-20 00:55:00,
2013-03-19 19:59:00,21.2,5.5,29.82,WNW,290,10.0,10.0,50,0.00,,SKC,0.00,VWS V14.01,2013-03-20 00:59:00,
2013-03-19 20:00:00,19.1,4.8,29.85,WNW,294,3.0,9.0,53,0.00,,SKC,0.00,VWS V14.01,2013-03-20 01:00:00,
2013-03-19 20:04:00,21.1,5.8,29.83,WNW,283,6.0,6.0,51,0.00,,SKC,0.00,VWS V14.01,2013-03-20 01:04:00,
2013-03-19 20:05:00,19.0,4.7,29.85,WNW,285,4.0,11.0,53,0.00,,SKC,0.00,VWS V14.01,2013-03-20 01:05:00,
2013-03-19 20:09:00,20.9,5.6,29.83,West,279,3.0,6.0,51,0.00,,SKC,0.00,VWS V14.01,2013-03-20 01:09:00,
2013-03-19 20:10:00,18.8,4.9,29.85,WNW,292,7.0,7.0,54,0.00,,SKC,0.00,VWS V14.01,2013-03-20 01:10:00,
2013-03-19 20:14:00,20.6,5.8,29.83,WNW,282,3.0,4.0,52,0.00,,SKC,0.00,VWS V14.01,2013-03-20 01:14:00,
2013-03-19 20:15:00,18.8,4.9,29.86,West,281,4.0,13.0,54,0.00,,SKC,0.00,VWS V14.01,2013-03-20 01:15:00,
2013-03-19 20:19:00,20.3,5.5,29.84,West,264,5.0,6.0,52,0.00,,SKC,0.00,VWS V14.01,2013-03-20 01:19:00,
2013-03-19 20:20:00,18.8,4.9,29.86,WSW,256,4.0,12.0,54,0.00,,SKC,0.00,VWS V14.01,2013-03-20 01:20:00,
2013-03-19 20:24:00,20.2,5.0,29.84,WNW,289,4.0,7.0,51,0.00,,SKC,0.00,VWS V14.01,2013-03-20 01:24:00,
2013-03-19 20:25:00,18.6,4.7,29.86,West,280,3.0,11.0,54,0.00,,SKC,0.00,VWS V14.01,2013-03-20 01:25:00,
2013-03-19 20:29:00,20.2,5.4,29.84,West,260,3.0,7.0,52,0.00,,SKC,0.00,VWS V14.01,2013-03-20 01:29:00,
2013-03-19 20:30:00,18.4,4.6,29.86,WNW,283,5.0,13.0,54,0.00,,SKC,0.00,VWS V14.01,2013-03-20 01:30:00,
2013-03-19 20:34:00,20.0,5.2,29.84,WSW,255,4.0,6.0,52,0.00,,SKC,0.00,VWS V14.01,2013-03-20 01:34:00,
2013-03-19 20:35:00,18.3,4.8,29.86,West,272,2.0,12.0,55,0.00,,SKC,0.00,VWS V14.01,2013-03-20 01:35:00,
2013-03-19 20:39:00,19.8,5.4,29.84,NW,311,1.0,3.0,53,0.00,,SKC,0.00,VWS V14.01,2013-03-20 01:39:00,
2013-03-19 20:40:00,18.0,4.6,29.86,West,274,1.0,8.0,55,0.00,,SKC,0.00,VWS V14.01,2013-03-20 01:40:00,
2013-03-19 20:44:00,19.6,5.3,29.84,WNW,290,3.0,4.0,53,0.00,,SKC,0.00,VWS V14.01,2013-03-20 01:44:00,
2013-03-19 20:45:00,17.8,4.8,29.86,WNW,282,6.0,11.0,56,0.00,,SKC,0.00,VWS V14.01,2013-03-20 01:45:00,
2013-03-19 20:49:00,19.4,5.1,29.85,West,281,4.0,7.0,53,0.00,,SKC,0.00,VWS V14.01,2013-03-20 01:49:00,
2013-03-19 20:50:00,17.7,4.7,29.86,West,275,6.0,11.0,56,0.00,,SKC,0.00,VWS V14.01,2013-03-20 01:50:00,
2013-03-19 20:54:00,19.3,5.0,29.85,West,276,3.0,6.0,53,0.00,,SKC,0.00,VWS V14.01,2013-03-20 01:54:00,
2013-03-19 20:55:00,17.8,4.8,29.86,West,260,6.0,17.0,56,0.00,,SKC,0.00,VWS V14.01,2013-03-20 01:55:00,
2013-03-19 20:59:00,19.3,5.0,29.85,West,277,3.0,9.0,53,0.00,,SKC,0.00,VWS V14.01,2013-03-20 01:59:00,
2013-03-19 21:00:00,17.5,4.9,29.86,West,276,10.0,14.0,57,0.00,,SKC,0.00,VWS V14.01,2013-03-20 02:00:00,
2013-03-19 21:04:00,19.1,4.8,29.85,West,264,3.0,11.0,53,0.00,,SKC,0.00,VWS V14.01,2013-03-20 02:04:00,
2013-03-19 21:05:00,17.6,4.6,29.86,WNW,290,4.0,17.0,56,0.00,,SKC,0.00,VWS V14.01,2013-03-20 02:05:00,
2013-03-19 21:09:00,18.9,5.0,29.85,WNW,288,2.0,6.0,54,0.00,,SKC,0.00,VWS V14.01,2013-03-20 02:09:00,
2013-03-19 21:10:00,17.4,4.8,29.86,WNW,283,7.0,9.0,57,0.00,,SKC,0.00,VWS V14.01,2013-03-20 02:10:00,
2013-03-19 21:14:00,18.7,4.8,29.85,WNW,294,5.0,12.0,54,0.00,,SKC,0.00,VWS V14.01,2013-03-20 02:14:00,
2013-03-19 21:15:00,17.3,4.7,29.86,West,261,5.0,10.0,57,0.00,,SKC,0.00,VWS V14.01,2013-03-20 02:15:00,
2013-03-19 21:19:00,18.8,4.9,29.86,WNW,296,5.0,11.0,54,0.00,,SKC,0.00,VWS V14.01,2013-03-20 02:19:00,
2013-03-19 21:20:00,17.1,4.5,29.86,WNW,288,3.0,10.0,57,0.00,,SKC,0.00,VWS V14.01,2013-03-20 02:20:00,
2013-03-19 21:24:00,18.7,4.8,29.86,West,259,4.0,11.0,54,0.00,,SKC,0.00,VWS V14.01,2013-03-20 02:24:00,
2013-03-19 21:25:00,16.8,4.6,29.86,West,272,5.0,7.0,58,0.00,,SKC,0.00,VWS V14.01,2013-03-20 02:25:00,
2013-03-19 21:29:00,18.5,4.6,29.86,WNW,299,4.0,6.0,54,0.00,,SKC,0.00,VWS V14.01,2013-03-20 02:29:00,
2013-03-19 21:30:00,16.7,4.5,29.86,West,279,7.0,12.0,58,0.00,,SKC,0.00,VWS V14.01,2013-03-20 02:30:00,
2013-03-19 21:34:00,18.4,4.6,29.86,West,268,3.0,12.0,54,0.00,,SKC,0.00,VWS V14.01,2013-03-20 02:34:00,
2013-03-19 21:35:00,16.6,4.4,29.86,WNW,283,7.0,10.0,58,0.00,,SKC,0.00,VWS V14.01,2013-03-20 02:35:00,
2013-03-19 21:39:00,18.1,4.7,29.86,West,271,6.0,8.0,55,0.00,,SKC,0.00,VWS V14.01,2013-03-20 02:39:00,
2013-03-19 21:40:00,16.6,4.4,29.86,WSW,246,2.0,11.0,58,0.00,,SKC,0.00,VWS V14.01,2013-03-20 02:40:00,
2013-03-19 21:44:00,17.9,4.5,29.86,WNW,303,3.0,11.0,55,0.00,,SKC,0.00,VWS V14.01,2013-03-20 02:44:00,
2013-03-19 21:45:00,16.5,4.7,29.86,WNW,291,3.0,10.0,59,0.00,,SKC,0.00,VWS V14.01,2013-03-20 02:45:00,
2013-03-19 21:49:00,17.8,4.8,29.86,WNW,282,9.0,11.0,56,0.00,,SKC,0.00,VWS V14.01,2013-03-20 02:49:00,
2013-03-19 21:50:00,16.2,4.4,29.86,WNW,288,6.0,9.0,59,0.00,,SKC,0.00,VWS V14.01,2013-03-20 02:50:00,
2013-03-19 21:54:00,17.8,4.8,29.86,West,276,4.0,14.0,56,0.00,,SKC,0.00,VWS V14.01,2013-03-20 02:54:00,
2013-03-19 21:55:00,16.1,4.3,29.86,WNW,290,5.0,9.0,59,0.00,,SKC,0.00,VWS V14.01,2013-03-20 02:55:00,
2013-03-19 21:57:00,16.0,4.2,29.86,WNW,291,4.0,6.0,59,0.00,,SKC,0.00,VWS V14.01,2013-03-20 02:57:00,
2013-03-19 21:58:00,16.0,4.2,29.86,WSW,248,3.0,7.0,59,0.00,,SKC,0.00,VWS V14.01,2013-03-20 02:58:00,
2013-03-19 21:59:00,17.7,4.7,29.86,WSW,257,2.0,9.0,56,0.00,,SKC,0.00,VWS V14.01,2013-03-20 02:59:00,
2013-03-19 22:00:00,16.0,4.6,29.86,West,261,3.0,8.0,60,0.00,,SKC,0.00,VWS V14.01,2013-03-20 03:00:00,
2013-03-19 22:01:00,15.9,4.5,29.86,West,271,9.0,10.0,60,0.00,,SKC,0.00,VWS V14.01,2013-03-20 03:01:00,
2013-03-19 22:02:00,15.9,4.5,29.86,WNW,285,4.0,10.0,60,0.00,,SKC,0.00,VWS V14.01,2013-03-20 03:02:00,
2013-03-19 22:03:00,15.8,4.4,29.86,West,275,4.0,10.0,60,0.00,,SKC,0.00,VWS V14.01,2013-03-20 03:03:00,
2013-03-19 22:04:00,17.6,4.6,29.86,WNW,288,6.0,17.0,56,0.00,,SKC,0.00,VWS V14.01,2013-03-20 03:04:00,
2013-03-19 22:05:00,15.8,4.4,29.86,WNW,283,4.0,4.0,60,0.00,,SKC,0.00,VWS V14.01,2013-03-20 03:05:00,
2013-03-19 22:06:00,15.7,4.3,29.86,WNW,284,3.0,4.0,60,0.00,,SKC,0.00,VWS V14.01,2013-03-20 03:06:00,
2013-03-19 22:07:00,15.7,4.3,29.86,West,280,5.0,9.0,60,0.00,,SKC,0.00,VWS V14.01,2013-03-20 03:07:00,
2013-03-19 22:08:00,15.6,4.2,29.86,WNW,291,4.0,9.0,60,0.00,,SKC,0.00,VWS V14.01,2013-03-20 03:08:00,
2013-03-19 22:09:00,17.5,4.9,29.86,West,261,4.0,8.0,57,0.00,,SKC,0.00,VWS V14.01,2013-03-20 03:09:00,
2013-03-19 22:10:00,15.7,4.3,29.86,WNW,287,5.0,10.0,60,0.00,,SKC,0.00,VWS V14.01,2013-03-20 03:10:00,
2013-03-19 22:14:00,17.3,4.7,29.86,WNW,296,7.0,8.0,57,0.00,,SKC,0.00,VWS V14.01,2013-03-20 03:14:00,
2013-03-19 22:15:00,15.5,4.1,29.87,WNW,291,5.0,11.0,60,0.00,,SKC,0.00,VWS V14.01,2013-03-20 03:15:00,
2013-03-19 22:19:00,17.2,4.6,29.86,WNW,290,10.0,10.0,57,0.00,,SKC,0.00,VWS V14.01,2013-03-20 03:19:00,
2013-03-19 22:20:00,15.4,4.4,29.87,WSW,246,3.0,8.0,61,0.00,,SKC,0.00,VWS V14.01,2013-03-20 03:20:00,
2013-03-19 22:24:00,17.0,4.4,29.86,WNW,290,4.0,6.0,57,0.00,,SKC,0.00,VWS V14.01,2013-03-20 03:24:00,
2013-03-19 22:25:00,15.4,4.4,29.87,West,272,4.0,13.0,61,0.00,,SKC,0.00,VWS V14.01,2013-03-20 03:25:00,
2013-03-19 22:30:00,16.8,4.6,29.86,WSW,254,8.0,12.0,58,0.00,,SKC,0.00,VWS V14.01,2013-03-20 03:30:00,
2013-03-19 22:35:00,16.7,4.5,29.86,West,277,3.0,7.0,58,0.00,,SKC,0.00,VWS V14.01,2013-03-20 03:35:00,
2013-03-19 22:40:00,16.6,4.4,29.86,West,277,5.0,10.0,58,0.00,,SKC,0.00,VWS V14.01,2013-03-20 03:40:00,
2013-03-19 22:45:00,16.5,4.7,29.86,West,281,8.0,8.0,59,0.00,,SKC,0.00,VWS V14.01,2013-03-20 03:45:00,
2013-03-19 22:50:00,16.3,4.5,29.86,West,265,5.0,7.0,59,0.00,,SKC,0.00,VWS V14.01,2013-03-20 03:50:00,
2013-03-19 22:55:00,16.2,4.4,29.86,West,279,3.0,8.0,59,0.00,,SKC,0.00,VWS V14.01,2013-03-20 03:55:00,
2013-03-19 23:00:00,14.3,4.4,29.86,West,279,3.0,11.0,64,0.00,,SKC,0.00,VWS V14.01,2013-03-20 04:00:00,
2013-03-19 23:05:00,15.8,4.4,29.86,West,264,3.0,10.0,60,0.00,,SKC,0.00,VWS V14.01,2013-03-20 04:05:00,
2013-03-19 23:10:00,15.7,4.3,29.86,West,277,3.0,9.0,60,0.00,,SKC,0.00,VWS V14.01,2013-03-20 04:10:00,
2013-03-19 23:15:00,15.5,4.1,29.86,WNW,286,5.0,11.0,60,0.00,,SKC,0.00,VWS V14.01,2013-03-20 04:15:00,
2013-03-19 23:20:00,15.4,4.4,29.87,WNW,290,2.0,8.0,61,0.00,,SKC,0.00,VWS V14.01,2013-03-20 04:20:00,
2013-03-19 23:25:00,15.3,4.3,29.87,West,259,4.0,10.0,61,0.00,,SKC,0.00,VWS V14.01,2013-03-20 04:25:00,
2013-03-19 23:30:00,15.3,4.3,29.87,SW,230,1.0,11.0,61,0.00,,SKC,0.00,VWS V14.01,2013-03-20 04:30:00,
2013-03-19 23:35:00,15.1,4.1,29.87,WSW,250,4.0,9.0,61,0.00,,SKC,0.00,VWS V14.01,2013-03-20 04:35:00,
2013-03-19 23:40:00,15.0,4.3,29.87,West,277,6.0,13.0,62,0.00,,SKC,0.00,VWS V14.01,2013-03-20 04:40:00,
2013-03-19 23:45:00,14.8,4.2,29.87,WNW,291,4.0,9.0,62,0.00,,SKC,0.00,VWS V14.01,2013-03-20 04:45:00,
2013-03-19 23:50:00,12.8,3.9,29.87,WSW,245,4.0,6.0,67,0.00,,SKC,0.00,VWS V14.01,2013-03-20 04:50:00,
2013-03-19 23:51:00,14.6,4.3,29.87,West,279,5.0,8.0,63,0.00,,SKC,0.00,VWS V14.01,2013-03-20 04:51:00,
2013-03-19 23:55:00,12.6,4.1,29.87,WSW,257,3.0,5.0,68,0.00,,SKC,0.00,VWS V14.01,2013-03-20 04:55:00,
2013-03-19 23:56:00,14.4,4.5,29.87,WNW,282,3.0,7.0,64,0.00,,SKC,0.00,VWS V14.01,2013-03-20 04:56:00,